Terminal Aerodrome Forecast
Issued by NWS

Home | Current Version | Previous Version | Text Only | Print | Product List | Glossary Off
Versions: 1 2 3 4 5 6 7 8 9 10 11 12 13 14

636
FTUS43 KTOP 282329
TAFMHK
TAF
KMHK 282329Z 2900/2924 03008KT P6SM SKC
     FM290600 02003KT P6SM SCT030=

USA.gov is the U.S. government's official web portal to all federal, state and local government web resources and services.